Time;durP1;ratioP1;P1;durP2;ratioP2;P2;SDS_P1;SDS_P2;PMS_P1;PMS_P2;Temp;Humidity;BMP_temperature;BMP_pressure;BME280_temperature;BME280_humidity;BME280_pressure;Samples;Min_cycle;Max_cycle;Signal;HPM_P1;HPM_P2
2022/07/19 00:01:09;;;;;;;9.50;4.40;;;;;;;16.22;85.55;100347.77;104810;1273;61151;-71
2022/07/19 00:03:59;;;;;;;8.60;4.10;;;;;;;16.22;85.72;100342.33;104967;1274;60521;-71
2022/07/19 00:06:49;;;;;;;10.50;4.50;;;;;;;16.23;85.63;100348.16;105161;1274;72188;-69
2022/07/19 00:09:37;;;;;;;10.00;4.60;;;;;;;16.23;85.79;100341.89;105198;1274;69394;-71
2022/07/19 00:12:25;;;;;;;10.10;4.90;;;;;;;16.23;85.82;100343.14;104839;1274;72660;-70
2022/07/19 00:15:16;;;;;;;10.20;4.50;;;;;;;16.24;85.98;100340.77;104887;1274;61263;-71
2022/07/19 00:18:06;;;;;;;11.20;4.60;;;;;;;16.24;86.03;100341.30;104989;1274;61016;-72
2022/07/19 00:20:54;;;;;;;12.20;4.80;;;;;;;16.23;85.85;100337.61;104832;1274;73967;-73
2022/07/19 00:23:42;;;;;;;11.20;4.50;;;;;;;16.24;85.93;100334.71;104844;1274;68545;-73
2022/07/19 00:26:31;;;;;;;10.80;4.90;;;;;;;16.25;86.03;100337.45;104938;1274;72799;-71
2022/07/19 00:29:19;;;;;;;10.70;4.30;;;;;;;16.25;85.98;100336.54;104873;1274;59396;-68
2022/07/19 00:32:07;;;;;;;10.40;5.20;;;;;;;16.26;85.92;100338.92;105025;1274;59848;-72
2022/07/19 00:34:55;;;;;;;9.80;4.20;;;;;;;16.24;86.05;100340.33;105041;1274;73032;-71
2022/07/19 00:37:44;;;;;;;9.70;4.70;;;;;;;16.24;85.81;100333.73;104870;1274;68548;-72
2022/07/19 00:40:36;;;;;;;10.20;4.30;;;;;;;16.26;85.86;100335.20;104867;1274;73857;-72
2022/07/19 00:43:24;;;;;;;9.20;4.30;;;;;;;16.26;85.74;100332.66;104898;1274;60730;-71
2022/07/19 00:46:20;;;;;;;10.90;4.60;;;;;;;16.28;85.57;100331.41;104902;1274;60487;-71
2022/07/19 00:49:08;;;;;;;10.70;4.60;;;;;;;16.29;85.42;100328.44;104929;1274;72642;-71
2022/07/19 00:51:57;;;;;;;9.60;4.30;;;;;;;16.32;85.49;100329.73;104844;1273;68636;-73
2022/07/19 00:54:46;;;;;;;9.40;4.50;;;;;;;16.35;85.30;100330.91;104994;1274;73449;-72
2022/07/19 00:57:39;;;;;;;10.60;4.60;;;;;;;16.36;84.89;100327.92;104822;1274;61054;-72
2022/07/19 01:00:31;;;;;;;10.30;4.60;;;;;;;16.37;84.83;100325.38;104830;1274;60240;-73
2022/07/19 01:03:20;;;;;;;10.60;5.00;;;;;;;16.37;84.60;100325.94;104904;1274;71249;-72
2022/07/19 01:06:09;;;;;;;9.20;4.20;;;;;;;16.38;84.62;100322.79;105097;1274;68090;-73
2022/07/19 01:08:58;;;;;;;11.30;4.60;;;;;;;16.38;84.54;100324.54;105294;1274;74822;-73
2022/07/19 01:11:46;;;;;;;9.90;4.70;;;;;;;16.40;84.27;100323.33;104939;1274;60295;-71
2022/07/19 01:14:37;;;;;;;10.90;4.50;;;;;;;16.41;84.21;100315.48;105018;1274;60239;-72
2022/07/19 01:17:26;;;;;;;8.40;4.30;;;;;;;16.41;84.13;100316.13;104850;1274;73980;-72
2022/07/19 01:20:14;;;;;;;10.60;4.90;;;;;;;16.42;83.97;100317.73;104943;1274;68660;-71
2022/07/19 01:23:03;;;;;;;10.70;4.80;;;;;;;16.41;84.00;100316.92;104888;1274;73859;-72
2022/07/19 01:25:51;;;;;;;10.30;4.50;;;;;;;16.41;84.01;100315.45;104864;1274;59420;-72
2022/07/19 01:28:39;;;;;;;9.90;4.60;;;;;;;16.42;83.98;100313.73;104854;1274;59469;-73
2022/07/19 01:31:27;;;;;;;10.40;4.80;;;;;;;16.42;83.97;100305.69;104872;1274;73082;-72
2022/07/19 01:34:16;;;;;;;10.00;4.30;;;;;;;16.43;83.92;100303.58;104557;1279;67970;-73
2022/07/19 01:37:04;;;;;;;11.10;5.00;;;;;;;16.44;83.89;100298.17;104573;1278;71417;-74
2022/07/19 01:39:56;;;;;;;9.70;4.40;;;;;;;16.43;84.06;100296.60;104649;1279;60713;-74
2022/07/19 01:42:46;;;;;;;11.70;4.50;;;;;;;16.43;84.10;100295.73;106016;1277;60468;-73
2022/07/19 01:45:35;;;;;;;9.20;3.90;;;;;;;16.43;84.04;100294.65;107398;1278;72672;-73
2022/07/19 01:48:24;;;;;;;10.80;4.50;;;;;;;16.43;84.05;100293.91;105955;1279;66507;-75
2022/07/19 01:51:12;;;;;;;10.10;4.80;;;;;;;16.46;83.93;100296.73;105696;1279;73972;-75
2022/07/19 01:54:02;;;;;;;10.30;4.40;;;;;;;16.46;83.73;100295.21;104967;1279;59375;-73
2022/07/19 01:56:50;;;;;;;10.00;3.90;;;;;;;16.48;83.81;100295.95;104521;1278;60412;-73
2022/07/19 01:59:39;;;;;;;9.20;4.00;;;;;;;16.49;83.74;100292.83;104358;1278;71410;-73
2022/07/19 02:02:27;;;;;;;10.20;4.20;;;;;;;16.48;83.76;100293.94;104449;1278;68942;-71
2022/07/19 02:05:15;;;;;;;9.50;4.10;;;;;;;16.48;83.74;100288.48;104544;1274;72347;-71
2022/07/19 02:08:06;;;;;;;10.60;4.70;;;;;;;16.46;83.87;100285.12;104830;1274;59545;-72
2022/07/19 02:10:54;;;;;;;9.40;4.40;;;;;;;16.44;83.91;100277.34;105099;1274;59337;-72
2022/07/19 02:13:42;;;;;;;11.80;5.20;;;;;;;16.44;83.82;100280.08;104669;1274;73066;-71
2022/07/19 02:16:30;;;;;;;9.20;4.60;;;;;;;16.44;83.63;100277.88;104835;1274;67915;-70
2022/07/19 02:19:20;;;;;;;9.30;4.40;;;;;;;16.44;83.66;100273.84;104910;1274;74382;-71
2022/07/19 02:22:08;;;;;;;9.10;4.10;;;;;;;16.43;83.63;100269.77;104984;1274;60766;-71
2022/07/19 02:24:56;;;;;;;11.30;4.50;;;;;;;16.44;83.50;100270.39;105156;1274;59432;-72
2022/07/19 02:27:44;;;;;;;11.70;4.90;;;;;;;16.44;83.47;100274.52;105117;1274;73117;-72
2022/07/19 02:30:33;;;;;;;9.40;4.60;;;;;;;16.45;83.44;100276.04;104835;1274;69051;-72
2022/07/19 02:33:20;;;;;;;10.80;5.00;;;;;;;16.45;83.41;100271.51;104984;1274;71786;-71
2022/07/19 02:36:09;;;;;;;11.50;4.80;;;;;;;16.44;83.37;100266.96;104994;1274;59397;-73
2022/07/19 02:38:58;;;;;;;11.40;4.50;;;;;;;16.45;83.29;100268.02;104864;1274;60852;-72
2022/07/19 02:41:46;;;;;;;10.00;4.90;;;;;;;16.44;83.32;100264.28;104961;1274;72197;-73
2022/07/19 02:44:34;;;;;;;12.30;5.10;;;;;;;16.44;83.15;100261.27;104901;1274;68330;-73
2022/07/19 02:47:23;;;;;;;9.70;5.10;;;;;;;16.45;83.19;100264.59;104861;1274;72505;-72
2022/07/19 02:50:11;;;;;;;12.60;5.20;;;;;;;16.42;83.22;100265.77;104891;1274;59659;-72
2022/07/19 02:52:59;;;;;;;9.90;4.20;;;;;;;16.45;83.28;100267.95;104915;1274;60524;-71
2022/07/19 02:55:47;;;;;;;10.40;4.80;;;;;;;16.45;83.44;100267.25;104810;1274;74475;-70
2022/07/19 02:58:36;;;;;;;11.80;4.90;;;;;;;16.46;83.31;100264.48;105025;1274;69597;-71
2022/07/19 03:01:24;;;;;;;10.80;4.80;;;;;;;16.46;83.54;100264.96;104866;1274;73393;-72
2022/07/19 03:04:12;;;;;;;12.10;4.70;;;;;;;16.46;83.75;100264.41;105095;1274;59303;-70
2022/07/19 03:07:00;;;;;;;9.00;4.40;;;;;;;16.47;83.73;100261.88;104865;1274;62233;-73
2022/07/19 03:09:49;;;;;;;10.70;5.10;;;;;;;16.48;83.81;100263.57;105147;1277;72518;-70
2022/07/19 03:12:37;;;;;;;9.40;4.70;;;;;;;16.48;84.13;100263.17;104940;1274;69442;-71
2022/07/19 03:15:25;;;;;;;9.50;4.50;;;;;;;16.51;84.02;100261.13;105032;1274;73648;-71
2022/07/19 03:18:13;;;;;;;10.20;4.50;;;;;;;16.54;84.22;100266.58;104856;1274;59667;-71
2022/07/19 03:21:02;;;;;;;10.10;4.60;;;;;;;16.56;84.08;100263.31;104837;1274;59885;-71
2022/07/19 03:23:50;;;;;;;9.60;4.90;;;;;;;16.58;84.05;100261.86;104877;1274;71665;-72
2022/07/19 03:26:38;;;;;;;14.50;5.50;;;;;;;16.60;84.01;100258.98;105080;1274;67011;-73
2022/07/19 03:29:26;;;;;;;10.60;4.90;;;;;;;16.61;84.07;100260.81;105122;1273;73205;-73
2022/07/19 03:32:17;;;;;;;10.90;5.30;;;;;;;16.63;84.15;100260.08;104928;1274;59584;-73
2022/07/19 03:35:06;;;;;;;10.60;5.20;;;;;;;16.67;84.15;100260.23;105052;1274;61507;-73
2022/07/19 03:37:54;;;;;;;12.20;5.30;;;;;;;16.69;84.13;100258.91;104800;1273;71195;-73
2022/07/19 03:40:47;;;;;;;10.10;4.60;;;;;;;16.73;84.08;100265.41;104993;1274;68525;-74
2022/07/19 03:43:38;;;;;;;10.30;4.80;;;;;;;16.75;84.16;100261.43;105076;1274;71619;-74
2022/07/19 03:46:28;;;;;;;9.10;4.50;;;;;;;16.79;84.04;100261.56;105046;1274;59385;-73
2022/07/19 03:49:17;;;;;;;8.80;4.10;;;;;;;16.82;84.15;100262.27;104794;1274;60426;-74
2022/07/19 03:52:05;;;;;;;10.00;4.80;;;;;;;16.87;83.94;100264.34;105065;1274;72420;-74
2022/07/19 03:54:52;;;;;;;11.20;5.00;;;;;;;16.93;83.89;100263.56;105319;1274;68043;-73
2022/07/19 03:57:43;;;;;;;11.60;5.20;;;;;;;16.99;83.68;100268.15;104772;1274;73421;-72
2022/07/19 04:00:31;;;;;;;9.20;4.30;;;;;;;17.04;83.55;100269.61;104852;1274;59514;-72
2022/07/19 04:03:20;;;;;;;11.30;5.10;;;;;;;17.09;83.32;100272.91;105029;1274;60637;-75
2022/07/19 04:06:11;;;;;;;9.40;4.30;;;;;;;17.13;83.15;100273.39;105000;1274;73737;-75
2022/07/19 04:08:59;;;;;;;10.80;4.80;;;;;;;17.16;83.08;100268.16;105392;1274;69602;-76
2022/07/19 04:11:47;;;;;;;9.00;4.20;;;;;;;17.22;82.87;100271.58;105228;1273;71872;-75
2022/07/19 04:14:36;;;;;;;9.60;4.60;;;;;;;17.28;82.44;100261.41;105032;1273;59416;-75
2022/07/19 04:17:24;;;;;;;11.20;5.20;;;;;;;17.34;82.43;100258.31;105082;1274;61568;-75
2022/07/19 04:20:12;;;;;;;9.40;5.10;;;;;;;17.42;82.06;100257.69;105117;1274;72148;-73
2022/07/19 04:23:00;;;;;;;10.30;4.50;;;;;;;17.50;81.61;100255.91;105045;1274;69550;-74
2022/07/19 04:25:48;;;;;;;10.00;4.60;;;;;;;17.60;81.06;100253.48;105205;1274;74453;-75
2022/07/19 04:28:37;;;;;;;12.00;5.10;;;;;;;17.68;80.67;100250.63;105112;1274;59377;-74
2022/07/19 04:31:25;;;;;;;9.90;4.30;;;;;;;17.78;79.97;100248.58;105081;1274;59292;-74
2022/07/19 04:34:13;;;;;;;10.50;4.50;;;;;;;17.90;79.59;100247.33;105097;1274;71195;-75
2022/07/19 04:37:01;;;;;;;11.10;4.50;;;;;;;18.06;78.72;100246.88;104809;1274;66766;-76
2022/07/19 04:39:49;;;;;;;10.20;4.60;;;;;;;18.24;77.83;100244.45;104838;1274;73362;-74
2022/07/19 04:42:38;;;;;;;8.80;4.50;;;;;;;18.37;77.13;100238.34;105070;1274;59336;-75
2022/07/19 04:45:26;;;;;;;11.20;4.90;;;;;;;18.51;76.82;100236.11;105058;1274;59964;-75
2022/07/19 04:48:13;;;;;;;9.10;4.90;;;;;;;18.65;75.62;100234.84;105071;1274;74135;-76
2022/07/19 04:51:01;;;;;;;10.10;4.50;;;;;;;18.77;75.01;100237.16;105183;1274;68703;-75
2022/07/19 04:53:49;;;;;;;10.70;4.30;;;;;;;18.89;74.48;100236.32;105094;1274;74432;-76
2022/07/19 04:56:37;;;;;;;9.70;4.70;;;;;;;18.99;74.17;100233.45;105882;1274;59313;-77
2022/07/19 04:59:25;;;;;;;8.60;4.50;;;;;;;19.07;73.25;100232.98;105946;1274;60359;-76
2022/07/19 05:02:13;;;;;;;9.90;4.40;;;;;;;19.21;72.75;100240.32;106399;1274;72321;-75
2022/07/19 05:05:03;;;;;;;10.90;4.70;;;;;;;19.47;71.56;100240.02;105970;1274;68647;-74
2022/07/19 05:07:51;;;;;;;10.40;4.60;;;;;;;19.83;70.75;100239.41;105913;1274;71268;-74
2022/07/19 05:10:39;;;;;;;11.60;4.40;;;;;;;20.51;68.23;100239.70;105250;1274;60686;-74
2022/07/19 05:13:28;;;;;;;10.40;4.40;;;;;;;20.85;66.97;100241.15;105119;1272;60366;-75
2022/07/19 05:16:16;;;;;;;10.50;5.20;;;;;;;21.56;64.83;100240.96;105505;1272;72384;-76
2022/07/19 05:19:04;;;;;;;9.50;4.10;;;;;;;22.38;61.94;100231.05;105208;1274;66968;-75
2022/07/19 05:21:52;;;;;;;12.90;7.20;;;;;;;23.06;59.01;100225.25;105148;1274;73767;-75
2022/07/19 05:24:40;;;;;;;9.60;4.60;;;;;;;23.78;57.44;100225.61;104871;1274;59508;-77
2022/07/19 05:27:28;;;;;;;9.70;4.30;;;;;;;24.64;54.33;100217.89;105234;1274;60530;-76
2022/07/19 05:30:16;;;;;;;11.70;7.20;;;;;;;25.51;51.54;100214.01;105489;1274;72326;-76
2022/07/19 05:33:04;;;;;;;9.30;4.30;;;;;;;26.35;49.51;100213.86;105200;1274;68303;-76
2022/07/19 05:35:52;;;;;;;10.10;4.60;;;;;;;27.26;47.68;100211.39;105702;1274;73177;-76
2022/07/19 05:38:39;;;;;;;8.40;3.90;;;;;;;28.04;44.02;100212.51;105129;1274;59288;-78
2022/07/19 05:41:27;;;;;;;10.80;4.90;;;;;;;28.65;42.31;100211.55;105278;1273;62025;-78
2022/07/19 05:44:16;;;;;;;9.90;3.90;;;;;;;29.12;40.27;100211.31;105060;1274;71287;-73
2022/07/19 05:47:05;;;;;;;8.70;3.60;;;;;;;29.43;38.89;100208.52;105169;1274;68084;-75
2022/07/19 05:49:53;;;;;;;8.30;3.80;;;;;;;29.92;38.42;100218.60;105138;1274;71589;-78
2022/07/19 05:52:41;;;;;;;7.70;3.80;;;;;;;30.40;37.44;100215.77;105491;1274;59294;-76
2022/07/19 05:55:29;;;;;;;8.30;3.70;;;;;;;31.01;36.03;100206.85;105742;1274;60831;-78
2022/07/19 05:58:18;;;;;;;8.50;4.50;;;;;;;31.49;34.62;100201.83;105226;1274;71210;-75
2022/07/19 06:01:19;;;;;;;8.20;3.60;;;;;;;31.84;33.51;100201.17;105125;1274;68478;-77
2022/07/19 06:04:07;;;;;;;8.40;3.40;;;;;;;32.12;32.99;100189.14;105245;1274;71397;-75
2022/07/19 06:06:55;;;;;;;8.90;3.80;;;;;;;32.43;33.04;100186.05;105444;1274;59206;-77
2022/07/19 06:09:43;;;;;;;8.20;4.10;;;;;;;32.84;31.80;100190.91;105530;1274;61303;-75
2022/07/19 06:12:32;;;;;;;8.80;3.40;;;;;;;33.26;31.47;100186.63;105085;1274;72501;-78
2022/07/19 06:15:20;;;;;;;9.00;3.60;;;;;;;33.62;30.54;100187.23;105217;1274;67798;-77
2022/07/19 06:18:08;;;;;;;7.40;3.40;;;;;;;34.02;30.51;100185.00;104962;1274;73289;-75
2022/07/19 06:20:56;;;;;;;9.40;3.80;;;;;;;34.40;29.41;100186.95;105220;1274;59292;-78
2022/07/19 06:23:45;;;;;;;7.90;3.30;;;;;;;34.73;28.96;100184.02;105520;1274;61807;-79
2022/07/19 06:26:33;;;;;;;9.70;3.90;;;;;;;35.01;28.48;100178.09;104938;1274;73021;-78
2022/07/19 06:29:22;;;;;;;10.60;5.60;;;;;;;35.33;27.54;100183.48;105077;1275;68095;-80
2022/07/19 06:32:10;;;;;;;9.20;4.20;;;;;;;35.35;27.52;100186.04;105014;1273;72861;-77
2022/07/19 06:34:58;;;;;;;10.60;6.10;;;;;;;35.44;27.35;100184.07;105094;1274;59359;-78
2022/07/19 06:37:46;;;;;;;8.90;3.80;;;;;;;35.60;27.27;100186.39;105147;1274;59317;-78
2022/07/19 06:40:34;;;;;;;7.60;3.80;;;;;;;35.83;27.27;100185.67;105284;1274;72250;-79
2022/07/19 06:43:22;;;;;;;8.70;3.60;;;;;;;36.08;26.07;100185.58;105281;1274;68097;-77
2022/07/19 06:46:10;;;;;;;7.50;4.20;;;;;;;36.12;25.95;100186.94;105444;1274;72968;-78
2022/07/19 06:48:58;;;;;;;9.90;4.20;;;;;;;36.34;25.80;100195.73;105083;1274;59302;-77
2022/07/19 06:51:46;;;;;;;8.30;3.70;;;;;;;36.24;25.36;100193.61;105080;1274;60547;-78
2022/07/19 06:54:35;;;;;;;7.70;3.50;;;;;;;36.19;25.30;100195.48;105199;1274;72403;-75
2022/07/19 06:57:23;;;;;;;8.40;3.50;;;;;;;36.47;25.43;100197.89;105023;1274;67438;-76
2022/07/19 07:00:13;;;;;;;8.90;3.90;;;;;;;36.68;25.55;100193.71;105070;1274;73179;-77
2022/07/19 07:03:01;;;;;;;8.10;3.70;;;;;;;36.94;24.81;100191.55;105133;1274;59381;-76
2022/07/19 07:05:49;;;;;;;9.00;3.70;;;;;;;37.10;24.48;100193.51;105281;1274;60821;-74
2022/07/19 07:08:37;;;;;;;8.00;3.40;;;;;;;37.22;24.29;100186.44;104998;1274;72947;-76
2022/07/19 07:11:25;;;;;;;9.70;4.00;;;;;;;37.29;23.97;100190.32;105047;1274;68926;-77
2022/07/19 07:14:13;;;;;;;8.60;3.80;;;;;;;37.67;23.77;100190.02;105015;1274;73485;-76
2022/07/19 07:17:01;;;;;;;8.20;3.80;;;;;;;37.99;23.25;100188.70;104838;1274;59393;-76
2022/07/19 07:19:49;;;;;;;8.60;3.90;;;;;;;38.31;22.84;100191.63;104903;1274;60547;-76
2022/07/19 07:22:41;;;;;;;10.80;5.90;;;;;;;38.62;22.16;100187.39;104973;1274;73125;-77
2022/07/19 07:25:29;;;;;;;8.70;3.90;;;;;;;38.54;21.59;100184.70;105063;1272;68236;-75
2022/07/19 07:28:17;;;;;;;9.70;4.00;;;;;;;38.35;21.46;100185.01;105198;1273;71760;-76
2022/07/19 07:31:13;;;;;;;9.60;4.00;;;;;;;38.21;21.17;100186.79;104964;1273;59274;-75
2022/07/19 07:34:01;;;;;;;9.90;3.80;;;;;;;38.21;21.04;100192.45;105123;1273;59425;-76
2022/07/19 07:36:49;;;;;;;8.20;3.50;;;;;;;38.12;20.78;100194.57;105184;1273;73808;-76
2022/07/19 07:39:38;;;;;;;8.30;4.10;;;;;;;38.02;21.58;100197.44;105191;1274;68025;-76
2022/07/19 07:42:26;;;;;;;8.60;4.30;;;;;;;38.22;21.56;100194.32;105322;1274;71345;-77
2022/07/19 07:45:14;;;;;;;9.40;3.90;;;;;;;38.46;21.34;100196.50;105323;1272;59316;-78
2022/07/19 07:48:02;;;;;;;7.90;3.50;;;;;;;38.67;21.48;100189.99;105040;1274;60738;-78
2022/07/19 07:50:52;;;;;;;9.70;3.90;;;;;;;38.90;20.88;100196.54;105283;1274;70923;-74
2022/07/19 07:53:40;;;;;;;10.80;4.00;;;;;;;39.14;20.44;100199.33;104884;1274;68674;-77
2022/07/19 07:56:28;;;;;;;9.10;3.60;;;;;;;39.33;20.08;100200.30;105153;1274;71884;-77
2022/07/19 07:59:17;;;;;;;8.80;3.60;;;;;;;39.42;19.68;100193.66;105133;1274;59323;-78
2022/07/19 08:02:05;;;;;;;8.30;3.50;;;;;;;39.29;19.69;100197.02;105055;1274;60307;-78
2022/07/19 08:04:53;;;;;;;9.10;3.90;;;;;;;39.20;19.51;100197.70;105090;1274;71137;-77
2022/07/19 08:07:42;;;;;;;9.70;4.20;;;;;;;39.16;19.83;100195.67;105331;1276;69334;-76
2022/07/19 08:10:38;;;;;;;9.70;4.40;;;;;;;39.09;19.92;100192.95;105990;1273;71696;-77
2022/07/19 08:13:26;;;;;;;11.40;7.00;;;;;;;38.89;20.12;100193.95;106893;1273;59263;-79
2022/07/19 08:16:16;;;;;;;9.10;3.80;;;;;;;38.71;20.24;100196.83;107639;1274;59177;-78
2022/07/19 08:19:04;;;;;;;7.50;4.00;;;;;;;38.29;20.46;100191.05;107545;1273;70888;-81
2022/07/19 08:21:52;;;;;;;7.70;3.70;;;;;;;38.11;20.93;100189.20;107244;1273;66746;-79
2022/07/19 08:24:40;;;;;;;7.60;3.40;;;;;;;37.96;20.83;100185.15;105498;1272;71655;-81
2022/07/19 08:27:29;;;;;;;8.90;3.60;;;;;;;37.91;21.20;100185.15;104887;1274;59456;-78
2022/07/19 08:30:16;;;;;;;7.90;3.80;;;;;;;37.90;21.21;100187.23;105276;1274;59336;-78
2022/07/19 08:33:08;;;;;;;8.50;3.60;;;;;;;38.13;21.21;100189.61;105055;1274;72528;-78
2022/07/19 08:35:56;;;;;;;8.40;3.30;;;;;;;38.29;20.98;100189.32;105008;1274;66675;-79
2022/07/19 08:38:45;;;;;;;8.10;3.90;;;;;;;38.36;20.82;100187.88;105351;1274;72673;-76
2022/07/19 08:41:34;;;;;;;7.70;3.20;;;;;;;38.43;20.44;100186.40;105164;1274;59330;-81
2022/07/19 08:44:23;;;;;;;9.20;3.50;;;;;;;38.54;20.27;100177.19;105170;1274;59393;-74
2022/07/19 08:47:12;;;;;;;8.40;3.60;;;;;;;38.47;20.14;100187.04;105349;1274;70906;-77
2022/07/19 08:50:03;;;;;;;9.00;3.40;;;;;;;38.47;20.86;100184.76;105173;1274;66850;-74
2022/07/19 08:52:52;;;;;;;7.40;3.20;;;;;;;38.61;20.37;100182.17;105097;1274;71371;-75
2022/07/19 08:55:41;;;;;;;7.70;2.90;;;;;;;38.81;20.19;100183.46;105084;1274;59393;-77
2022/07/19 08:58:29;;;;;;;10.70;5.00;;;;;;;38.87;20.10;100185.70;104947;1274;60731;-75
2022/07/19 09:01:17;;;;;;;8.30;3.80;;;;;;;38.92;20.30;100181.42;105129;1274;71052;-75
2022/07/19 09:04:18;;;;;;;8.10;3.50;;;;;;;38.85;20.29;100184.34;104973;1273;68146;-74
2022/07/19 09:07:06;;;;;;;8.50;3.20;;;;;;;39.17;19.97;100182.86;105040;1274;72979;-75
2022/07/19 09:10:23;;;;;;;7.20;3.00;;;;;;;39.34;20.20;100178.63;105460;1274;59202;-77
2022/07/19 09:13:16;;;;;;;7.50;3.60;;;;;;;39.22;19.81;100179.04;105326;1274;59673;-76
2022/07/19 09:16:05;;;;;;;8.60;3.30;;;;;;;39.30;19.63;100184.33;105395;1274;72352;-78
2022/07/19 09:19:04;;;;;;;7.90;3.10;;;;;;;39.48;19.27;100182.61;104977;1274;66228;-77
2022/07/19 09:22:05;;;;;;;8.90;3.20;;;;;;;39.50;19.36;100184.13;105091;1273;71057;-77
2022/07/19 09:24:53;;;;;;;9.30;3.40;;;;;;;39.53;19.55;100179.40;105260;1274;59285;-78
2022/07/19 09:27:57;;;;;;;7.90;3.30;;;;;;;39.59;19.70;100183.20;105153;1274;60595;-76
2022/07/19 09:30:52;;;;;;;11.50;3.50;;;;;;;39.78;19.45;100181.05;105013;1272;72689;-75
2022/07/19 09:33:46;;;;;;;7.50;3.30;;;;;;;39.71;19.69;100183.75;105038;1274;67106;-76
2022/07/19 09:36:34;;;;;;;7.60;2.90;;;;;;;39.62;19.24;100184.86;105276;1273;73924;-76
2022/07/19 09:39:28;;;;;;;11.00;3.10;;;;;;;39.35;19.86;100191.23;105052;1274;59396;-78
2022/07/19 09:42:22;;;;;;;7.50;3.10;;;;;;;38.95;19.96;100189.38;105089;1274;60806;-77
2022/07/19 09:45:20;;;;;;;7.70;3.10;;;;;;;38.88;20.10;100187.39;105289;1274;74117;-77
2022/07/19 09:48:08;;;;;;;9.10;3.70;;;;;;;38.98;20.31;100188.03;105338;1274;68215;-78
2022/07/19 09:50:56;;;;;;;7.10;3.10;;;;;;;39.18;20.41;100188.80;105059;1274;71555;-76
2022/07/19 09:53:45;;;;;;;8.80;3.40;;;;;;;39.22;20.41;100190.55;105108;1274;59429;-76
2022/07/19 09:56:37;;;;;;;9.00;3.10;;;;;;;39.20;20.54;100191.31;104963;1274;60371;-76
2022/07/19 09:59:27;;;;;;;9.10;3.10;;;;;;;39.41;20.41;100184.89;104947;1274;72459;-77
2022/07/19 10:02:21;;;;;;;7.40;3.00;;;;;;;39.54;20.21;100184.10;105117;1274;69573;-78
2022/07/19 10:05:11;;;;;;;7.50;2.90;;;;;;;39.51;20.63;100184.40;105222;1274;74192;-78
2022/07/19 10:08:01;;;;;;;8.60;3.50;;;;;;;39.57;20.44;100174.03;104998;1274;59404;-78
2022/07/19 10:10:49;;;;;;;7.40;3.10;;;;;;;39.86;20.27;100184.39;105325;1274;60511;-77
2022/07/19 10:13:37;;;;;;;8.10;3.40;;;;;;;40.07;19.80;100172.48;105092;1274;72574;-77
2022/07/19 10:17:18;;;;;;;8.70;3.30;;;;;;;40.11;19.54;100179.46;104941;1273;66875;-79
2022/07/19 10:20:07;;;;;;;7.50;3.20;;;;;;;39.95;19.94;100184.23;104924;1274;71584;-79
2022/07/19 10:23:03;;;;;;;8.30;3.20;;;;;;;39.88;20.00;100182.60;105013;1274;59321;-76
2022/07/19 10:25:51;;;;;;;8.30;3.30;;;;;;;39.89;19.82;100179.36;105577;1272;60666;-77
2022/07/19 10:28:39;;;;;;;8.80;2.90;;;;;;;40.00;19.66;100177.09;105510;1274;73809;-75
2022/07/19 10:32:06;;;;;;;10.30;3.30;;;;;;;39.98;19.90;100180.23;105656;1274;70122;-76
2022/07/19 10:35:25;;;;;;;8.70;3.10;;;;;;;39.83;19.66;100180.05;105211;1274;73029;-78
2022/07/19 10:38:13;;;;;;;8.80;3.50;;;;;;;39.51;19.98;100181.10;105180;1274;59410;-75
2022/07/19 10:41:02;;;;;;;8.00;3.40;;;;;;;39.54;20.25;100179.33;105272;1273;62284;-76
2022/07/19 10:44:09;;;;;;;7.60;3.60;;;;;;;39.62;20.52;100177.50;105550;1274;72566;-76
2022/07/19 10:46:57;;;;;;;7.90;2.90;;;;;;;39.81;20.16;100175.42;105422;1274;66948;-74
2022/07/19 10:49:48;;;;;;;7.20;2.40;;;;;;;40.06;18.94;100176.80;105132;1274;74182;-75
2022/07/19 10:52:39;;;;;;;7.90;2.80;;;;;;;39.95;18.40;100181.48;105028;1274;59308;-77
2022/07/19 10:55:30;;;;;;;8.40;2.90;;;;;;;40.10;18.66;100179.72;105063;1274;61640;-74
2022/07/19 10:58:18;;;;;;;9.10;2.60;;;;;;;40.31;18.24;100178.25;105089;1274;71399;-76
2022/07/19 11:01:19;;;;;;;7.60;2.80;;;;;;;40.47;18.40;100171.91;104959;1274;69587;-70
2022/07/19 11:04:30;;;;;;;6.80;3.20;;;;;;;40.68;18.00;100176.74;105137;1274;74437;-74
2022/07/19 11:07:23;;;;;;;8.20;2.80;;;;;;;40.93;17.85;100170.11;105550;1274;59355;-73
2022/07/19 11:10:11;;;;;;;6.60;2.50;;;;;;;40.99;18.17;100170.45;105369;1274;61009;-76
2022/07/19 11:12:59;;;;;;;7.70;3.20;;;;;;;40.84;17.97;100173.09;105015;1272;73952;-76
2022/07/19 11:15:57;;;;;;;7.50;2.50;;;;;;;40.64;18.02;100173.66;104952;1273;66840;-74
2022/07/19 11:18:47;;;;;;;9.60;2.70;;;;;;;40.12;18.10;100177.77;104993;1274;71784;-74
2022/07/19 11:21:37;;;;;;;7.00;2.60;;;;;;;39.27;18.73;100176.86;104978;1274;59295;-75
2022/07/19 11:24:26;;;;;;;8.30;3.10;;;;;;;38.40;19.65;100178.30;105574;1274;60253;-75
2022/07/19 11:27:16;;;;;;;6.60;2.70;;;;;;;37.84;20.22;100179.48;105175;1274;73760;-77
2022/07/19 11:30:07;;;;;;;6.90;2.70;;;;;;;37.05;21.14;100177.25;105440;1274;67840;-76
2022/07/19 11:33:04;;;;;;;9.10;2.80;;;;;;;36.39;22.20;100184.25;105110;1274;72853;-76
2022/07/19 11:35:58;;;;;;;7.20;2.50;;;;;;;35.95;22.66;100185.71;105459;1274;59319;-76
2022/07/19 11:38:52;;;;;;;7.30;2.90;;;;;;;35.48;22.47;100184.70;105338;1274;59292;-74
2022/07/19 11:41:44;;;;;;;10.50;2.60;;;;;;;35.17;23.53;100184.52;105343;1274;72260;-75
2022/07/19 11:44:37;;;;;;;7.40;2.50;;;;;;;34.73;23.25;100187.50;105304;1274;66780;-79
2022/07/19 11:47:26;;;;;;;7.40;2.50;;;;;;;34.05;23.58;100185.84;105528;1274;71339;-75
2022/07/19 11:50:26;;;;;;;8.80;2.80;;;;;;;33.60;24.58;100178.06;105150;1274;59315;-76
2022/07/19 11:53:20;;;;;;;8.50;2.70;;;;;;;32.86;25.69;100179.52;105174;1274;59280;-77
2022/07/19 11:56:32;;;;;;;10.80;5.80;;;;;;;32.16;27.39;100185.56;105433;1274;72947;-75
2022/07/19 11:59:20;;;;;;;8.60;3.50;;;;;;;31.65;28.10;100184.91;105652;1274;66684;-77
2022/07/19 12:02:08;;;;;;;9.10;2.90;;;;;;;31.21;28.57;100181.59;105390;1274;74287;-75
2022/07/19 12:04:56;;;;;;;7.10;2.90;;;;;;;30.79;29.25;100188.97;105704;1274;59365;-77
2022/07/19 12:07:49;;;;;;;7.30;3.50;;;;;;;30.46;29.69;100193.88;105721;1274;61438;-75
2022/07/19 12:10:49;;;;;;;8.50;3.00;;;;;;;30.24;30.08;100188.81;105291;1273;72983;-77
2022/07/19 12:13:37;;;;;;;9.00;2.80;;;;;;;29.93;29.79;100193.80;105616;1274;68336;-80
2022/07/19 12:16:31;;;;;;;8.50;2.80;;;;;;;29.73;31.10;100193.67;105488;1274;72920;-75
2022/07/19 12:19:20;;;;;;;9.20;3.00;;;;;;;29.64;31.57;100193.94;105293;1273;59395;-76
2022/07/19 12:22:36;;;;;;;7.70;2.90;;;;;;;29.47;31.97;100193.80;105257;1274;60985;-78
2022/07/19 12:25:37;;;;;;;8.00;3.00;;;;;;;29.40;31.99;100190.20;105599;1272;70356;-74
2022/07/19 12:28:26;;;;;;;7.90;3.10;;;;;;;29.41;32.37;100198.11;105179;1274;66923;-75
2022/07/19 12:31:14;;;;;;;7.50;2.70;;;;;;;29.42;31.20;100198.48;105169;1273;73424;-75
2022/07/19 12:34:02;;;;;;;6.20;2.50;;;;;;;29.37;31.31;100196.83;105138;1274;59284;-76
2022/07/19 12:36:51;;;;;;;8.00;2.90;;;;;;;29.31;30.24;100195.31;105585;1274;60120;-77
2022/07/19 12:39:54;;;;;;;7.80;2.80;;;;;;;29.26;31.06;100195.58;105334;1274;71049;-77
2022/07/19 12:42:59;;;;;;;8.00;3.10;;;;;;;29.19;30.53;100199.64;105334;1273;68302;-75
2022/07/19 12:45:48;;;;;;;7.50;2.90;;;;;;;29.14;29.89;100209.80;105125;1273;73426;-76
2022/07/19 12:48:36;;;;;;;7.90;2.70;;;;;;;29.05;29.45;100206.77;105533;1274;59309;-76
2022/07/19 12:51:24;;;;;;;6.50;2.50;;;;;;;29.04;29.98;100207.29;105718;1274;59383;-75
2022/07/19 12:54:13;;;;;;;7.90;2.90;;;;;;;29.03;30.47;100206.70;105219;1274;72323;-78
2022/07/19 12:57:01;;;;;;;6.60;2.50;;;;;;;29.02;30.39;100205.33;105321;1274;68577;-76
2022/07/19 12:59:49;;;;;;;8.00;2.40;;;;;;;29.03;30.73;100206.66;105237;1273;74772;-74